sensor_id;sensor_type;location;lat;lon;timestamp;P1;durP1;ratioP1;P2;durP2;ratioP2
10465;SDS011;5280;42.600;23.556;2023-11-21T00:00:50;1.50;;;0.90;;
10465;SDS011;5280;42.600;23.556;2023-11-21T00:03:18;1.13;;;1.03;;
10465;SDS011;5280;42.600;23.556;2023-11-21T00:05:45;1.00;;;1.00;;
10465;SDS011;5280;42.600;23.556;2023-11-21T00:08:11;2.10;;;1.20;;
10465;SDS011;5280;42.600;23.556;2023-11-21T00:10:37;0.90;;;0.90;;
10465;SDS011;5280;42.600;23.556;2023-11-21T00:13:04;2.47;;;1.17;;
10465;SDS011;5280;42.600;23.556;2023-11-21T00:15:31;1.43;;;1.23;;
10465;SDS011;5280;42.600;23.556;2023-11-21T00:17:59;1.70;;;1.20;;
10465;SDS011;5280;42.600;23.556;2023-11-21T00:20:30;1.13;;;1.10;;
10465;SDS011;5280;42.600;23.556;2023-11-21T00:22:57;1.20;;;1.20;;
10465;SDS011;5280;42.600;23.556;2023-11-21T00:25:24;2.33;;;1.67;;
10465;SDS011;5280;42.600;23.556;2023-11-21T00:27:51;2.60;;;1.80;;
10465;SDS011;5280;42.600;23.556;2023-11-21T00:30:19;3.87;;;2.80;;
10465;SDS011;5280;42.600;23.556;2023-11-21T00:32:47;2.17;;;1.97;;
10465;SDS011;5280;42.600;23.556;2023-11-21T00:35:14;2.20;;;1.83;;
10465;SDS011;5280;42.600;23.556;2023-11-21T00:37:42;4.40;;;2.03;;
10465;SDS011;5280;42.600;23.556;2023-11-21T00:40:10;3.17;;;1.90;;
10465;SDS011;5280;42.600;23.556;2023-11-21T00:42:40;2.07;;;1.60;;
10465;SDS011;5280;42.600;23.556;2023-11-21T00:45:07;2.20;;;2.00;;
10465;SDS011;5280;42.600;23.556;2023-11-21T00:47:35;1.97;;;1.60;;
10465;SDS011;5280;42.600;23.556;2023-11-21T00:50:02;4.77;;;2.30;;
10465;SDS011;5280;42.600;23.556;2023-11-21T00:52:31;2.70;;;2.27;;
10465;SDS011;5280;42.600;23.556;2023-11-21T00:55:00;4.43;;;2.10;;
10465;SDS011;5280;42.600;23.556;2023-11-21T00:57:28;2.17;;;1.97;;
10465;SDS011;5280;42.600;23.556;2023-11-21T00:59:54;4.13;;;1.80;;
10465;SDS011;5280;42.600;23.556;2023-11-21T01:02:21;2.17;;;1.90;;
10465;SDS011;5280;42.600;23.556;2023-11-21T01:04:48;2.40;;;1.80;;
10465;SDS011;5280;42.600;23.556;2023-11-21T01:07:15;4.53;;;2.20;;
10465;SDS011;5280;42.600;23.556;2023-11-21T01:09:42;1.87;;;1.73;;
10465;SDS011;5280;42.600;23.556;2023-11-21T01:12:11;3.40;;;2.23;;
10465;SDS011;5280;42.600;23.556;2023-11-21T01:14:38;2.73;;;2.43;;
10465;SDS011;5280;42.600;23.556;2023-11-21T01:17:04;2.87;;;2.07;;
10465;SDS011;5280;42.600;23.556;2023-11-21T01:19:32;2.93;;;2.03;;
10465;SDS011;5280;42.600;23.556;2023-11-21T01:21:59;2.70;;;2.50;;
10465;SDS011;5280;42.600;23.556;2023-11-21T01:24:25;2.20;;;2.00;;
10465;SDS011;5280;42.600;23.556;2023-11-21T01:26:52;2.33;;;1.70;;
10465;SDS011;5280;42.600;23.556;2023-11-21T01:29:20;3.17;;;1.87;;
10465;SDS011;5280;42.600;23.556;2023-11-21T01:31:47;1.93;;;1.70;;
10465;SDS011;5280;42.600;23.556;2023-11-21T01:34:14;1.97;;;1.80;;
10465;SDS011;5280;42.600;23.556;2023-11-21T01:36:41;2.70;;;2.00;;
10465;SDS011;5280;42.600;23.556;2023-11-21T01:39:08;3.80;;;2.20;;
10465;SDS011;5280;42.600;23.556;2023-11-21T01:41:39;3.70;;;2.33;;
10465;SDS011;5280;42.600;23.556;2023-11-21T01:44:06;5.93;;;2.47;;
10465;SDS011;5280;42.600;23.556;2023-11-21T01:46:35;2.93;;;1.87;;
10465;SDS011;5280;42.600;23.556;2023-11-21T01:49:03;2.80;;;2.27;;
10465;SDS011;5280;42.600;23.556;2023-11-21T01:51:30;3.23;;;2.47;;
10465;SDS011;5280;42.600;23.556;2023-11-21T01:53:58;3.13;;;2.60;;
10465;SDS011;5280;42.600;23.556;2023-11-21T01:56:25;3.23;;;2.63;;
10465;SDS011;5280;42.600;23.556;2023-11-21T01:58:52;3.30;;;2.60;;
10465;SDS011;5280;42.600;23.556;2023-11-21T02:01:19;4.67;;;2.87;;
10465;SDS011;5280;42.600;23.556;2023-11-21T02:03:47;6.00;;;2.93;;
10465;SDS011;5280;42.600;23.556;2023-11-21T02:06:14;4.70;;;2.70;;
10465;SDS011;5280;42.600;23.556;2023-11-21T02:08:41;3.77;;;2.50;;
10465;SDS011;5280;42.600;23.556;2023-11-21T02:11:09;3.90;;;2.83;;
10465;SDS011;5280;42.600;23.556;2023-11-21T02:13:38;3.57;;;3.20;;
10465;SDS011;5280;42.600;23.556;2023-11-21T02:16:08;3.70;;;3.00;;
10465;SDS011;5280;42.600;23.556;2023-11-21T02:18:36;5.13;;;3.03;;
10465;SDS011;5280;42.600;23.556;2023-11-21T02:21:05;3.07;;;2.77;;
10465;SDS011;5280;42.600;23.556;2023-11-21T02:23:34;3.40;;;2.93;;
10465;SDS011;5280;42.600;23.556;2023-11-21T02:26:01;4.80;;;3.17;;
10465;SDS011;5280;42.600;23.556;2023-11-21T02:28:29;3.83;;;2.80;;
10465;SDS011;5280;42.600;23.556;2023-11-21T02:30:59;4.07;;;3.00;;
10465;SDS011;5280;42.600;23.556;2023-11-21T02:33:28;2.70;;;2.50;;
10465;SDS011;5280;42.600;23.556;2023-11-21T02:35:54;3.97;;;2.97;;
10465;SDS011;5280;42.600;23.556;2023-11-21T02:38:21;3.10;;;2.80;;
10465;SDS011;5280;42.600;23.556;2023-11-21T02:40:49;2.67;;;2.43;;
10465;SDS011;5280;42.600;23.556;2023-11-21T02:43:16;3.27;;;2.53;;
10465;SDS011;5280;42.600;23.556;2023-11-21T02:45:43;2.23;;;2.00;;
10465;SDS011;5280;42.600;23.556;2023-11-21T02:48:10;2.43;;;2.20;;
10465;SDS011;5280;42.600;23.556;2023-11-21T02:50:37;1.77;;;1.50;;
10465;SDS011;5280;42.600;23.556;2023-11-21T02:53:04;1.83;;;1.70;;
10465;SDS011;5280;42.600;23.556;2023-11-21T02:55:31;2.83;;;1.97;;
10465;SDS011;5280;42.600;23.556;2023-11-21T02:58:02;2.37;;;2.00;;
10465;SDS011;5280;42.600;23.556;2023-11-21T03:00:29;2.47;;;2.10;;
10465;SDS011;5280;42.600;23.556;2023-11-21T03:02:59;2.37;;;2.17;;
10465;SDS011;5280;42.600;23.556;2023-11-21T03:05:27;2.23;;;2.07;;
10465;SDS011;5280;42.600;23.556;2023-11-21T03:07:54;4.50;;;2.73;;
10465;SDS011;5280;42.600;23.556;2023-11-21T03:10:21;2.57;;;2.20;;
10465;SDS011;5280;42.600;23.556;2023-11-21T03:12:48;3.90;;;2.77;;
10465;SDS011;5280;42.600;23.556;2023-11-21T03:15:16;3.63;;;2.60;;
10465;SDS011;5280;42.600;23.556;2023-11-21T03:17:43;4.03;;;2.87;;
10465;SDS011;5280;42.600;23.556;2023-11-21T03:20:10;3.17;;;2.80;;
10465;SDS011;5280;42.600;23.556;2023-11-21T03:22:39;4.00;;;3.40;;
10465;SDS011;5280;42.600;23.556;2023-11-21T03:25:06;3.17;;;2.87;;
10465;SDS011;5280;42.600;23.556;2023-11-21T03:27:35;3.53;;;3.23;;
10465;SDS011;5280;42.600;23.556;2023-11-21T03:30:04;4.10;;;3.20;;
10465;SDS011;5280;42.600;23.556;2023-11-21T03:32:37;3.03;;;2.53;;
10465;SDS011;5280;42.600;23.556;2023-11-21T03:35:04;5.27;;;2.47;;
10465;SDS011;5280;42.600;23.556;2023-11-21T03:37:31;3.43;;;2.37;;
10465;SDS011;5280;42.600;23.556;2023-11-21T03:39:58;2.70;;;2.40;;
10465;SDS011;5280;42.600;23.556;2023-11-21T03:42:25;2.43;;;2.23;;
10465;SDS011;5280;42.600;23.556;2023-11-21T03:44:52;4.70;;;2.30;;
10465;SDS011;5280;42.600;23.556;2023-11-21T03:47:19;4.10;;;2.37;;
10465;SDS011;5280;42.600;23.556;2023-11-21T03:49:47;3.10;;;2.77;;
10465;SDS011;5280;42.600;23.556;2023-11-21T03:52:14;3.47;;;2.80;;
10465;SDS011;5280;42.600;23.556;2023-11-21T03:54:40;4.30;;;3.13;;
10465;SDS011;5280;42.600;23.556;2023-11-21T03:57:10;3.40;;;3.10;;
10465;SDS011;5280;42.600;23.556;2023-11-21T03:59:39;4.20;;;2.70;;
10465;SDS011;5280;42.600;23.556;2023-11-21T04:02:06;5.73;;;3.20;;
10465;SDS011;5280;42.600;23.556;2023-11-21T04:04:33;3.87;;;3.00;;
10465;SDS011;5280;42.600;23.556;2023-11-21T04:07:01;4.87;;;2.90;;
10465;SDS011;5280;42.600;23.556;2023-11-21T04:09:28;3.83;;;3.23;;
10465;SDS011;5280;42.600;23.556;2023-11-21T04:11:55;4.60;;;2.50;;
10465;SDS011;5280;42.600;23.556;2023-11-21T04:14:22;2.60;;;2.23;;
10465;SDS011;5280;42.600;23.556;2023-11-21T04:16:49;3.73;;;2.20;;
10465;SDS011;5280;42.600;23.556;2023-11-21T04:19:16;2.73;;;2.00;;
10465;SDS011;5280;42.600;23.556;2023-11-21T04:21:43;2.30;;;2.10;;
10465;SDS011;5280;42.600;23.556;2023-11-21T04:24:11;4.13;;;2.00;;
10465;SDS011;5280;42.600;23.556;2023-11-21T04:26:38;3.00;;;2.17;;
10465;SDS011;5280;42.600;23.556;2023-11-21T04:29:05;2.90;;;2.60;;
10465;SDS011;5280;42.600;23.556;2023-11-21T04:31:32;3.53;;;2.70;;
10465;SDS011;5280;42.600;23.556;2023-11-21T04:34:01;3.57;;;2.90;;
10465;SDS011;5280;42.600;23.556;2023-11-21T04:36:29;4.57;;;2.70;;
10465;SDS011;5280;42.600;23.556;2023-11-21T04:38:56;2.90;;;2.40;;
10465;SDS011;5280;42.600;23.556;2023-11-21T04:41:25;2.70;;;2.47;;
10465;SDS011;5280;42.600;23.556;2023-11-21T04:43:52;3.47;;;2.60;;
10465;SDS011;5280;42.600;23.556;2023-11-21T04:46:19;3.97;;;3.10;;
10465;SDS011;5280;42.600;23.556;2023-11-21T04:48:46;4.33;;;2.93;;
10465;SDS011;5280;42.600;23.556;2023-11-21T04:51:12;4.03;;;2.47;;
10465;SDS011;5280;42.600;23.556;2023-11-21T04:53:39;3.00;;;2.60;;
10465;SDS011;5280;42.600;23.556;2023-11-21T04:56:06;2.77;;;2.30;;
10465;SDS011;5280;42.600;23.556;2023-11-21T04:58:35;5.60;;;2.27;;
10465;SDS011;5280;42.600;23.556;2023-11-21T05:01:02;2.40;;;2.20;;
10465;SDS011;5280;42.600;23.556;2023-11-21T05:03:29;2.30;;;2.10;;
10465;SDS011;5280;42.600;23.556;2023-11-21T05:05:56;2.07;;;1.87;;
10465;SDS011;5280;42.600;23.556;2023-11-21T05:08:22;2.60;;;1.73;;
10465;SDS011;5280;42.600;23.556;2023-11-21T05:10:50;2.00;;;1.50;;
10465;SDS011;5280;42.600;23.556;2023-11-21T05:13:18;2.13;;;1.63;;
10465;SDS011;5280;42.600;23.556;2023-11-21T05:15:46;4.80;;;1.90;;
10465;SDS011;5280;42.600;23.556;2023-11-21T05:18:13;1.57;;;1.43;;
10465;SDS011;5280;42.600;23.556;2023-11-21T05:20:40;2.30;;;1.70;;
10465;SDS011;5280;42.600;23.556;2023-11-21T05:23:07;4.27;;;1.80;;
10465;SDS011;5280;42.600;23.556;2023-11-21T05:25:34;2.03;;;1.90;;
10465;SDS011;5280;42.600;23.556;2023-11-21T05:28:01;4.43;;;1.83;;
10465;SDS011;5280;42.600;23.556;2023-11-21T05:30:29;2.07;;;1.87;;
10465;SDS011;5280;42.600;23.556;2023-11-21T05:32:57;3.53;;;2.27;;
10465;SDS011;5280;42.600;23.556;2023-11-21T05:35:24;2.37;;;2.17;;
10465;SDS011;5280;42.600;23.556;2023-11-21T05:37:51;3.50;;;2.60;;
10465;SDS011;5280;42.600;23.556;2023-11-21T05:40:18;2.67;;;2.20;;
10465;SDS011;5280;42.600;23.556;2023-11-21T05:42:47;2.90;;;2.30;;
10465;SDS011;5280;42.600;23.556;2023-11-21T05:45:14;2.60;;;1.97;;
10465;SDS011;5280;42.600;23.556;2023-11-21T05:47:42;2.03;;;1.83;;
10465;SDS011;5280;42.600;23.556;2023-11-21T05:50:12;3.37;;;1.57;;
10465;SDS011;5280;42.600;23.556;2023-11-21T05:52:40;1.73;;;1.50;;
10465;SDS011;5280;42.600;23.556;2023-11-21T05:55:08;1.00;;;1.00;;
10465;SDS011;5280;42.600;23.556;2023-11-21T05:57:35;1.77;;;1.33;;
10465;SDS011;5280;42.600;23.556;2023-11-21T06:00:03;3.83;;;1.73;;
10465;SDS011;5280;42.600;23.556;2023-11-21T06:02:36;4.20;;;2.23;;
10465;SDS011;5280;42.600;23.556;2023-11-21T06:05:04;1.93;;;1.57;;
10465;SDS011;5280;42.600;23.556;2023-11-21T06:07:33;1.90;;;1.60;;
10465;SDS011;5280;42.600;23.556;2023-11-21T06:10:00;2.97;;;2.33;;
10465;SDS011;5280;42.600;23.556;2023-11-21T06:12:28;3.10;;;2.30;;
10465;SDS011;5280;42.600;23.556;2023-11-21T06:14:55;3.63;;;2.20;;
10465;SDS011;5280;42.600;23.556;2023-11-21T06:17:22;3.83;;;2.53;;
10465;SDS011;5280;42.600;23.556;2023-11-21T06:19:50;3.20;;;2.57;;
10465;SDS011;5280;42.600;23.556;2023-11-21T06:22:18;4.87;;;2.80;;
10465;SDS011;5280;42.600;23.556;2023-11-21T06:24:46;5.53;;;3.03;;
10465;SDS011;5280;42.600;23.556;2023-11-21T06:27:13;4.27;;;3.20;;
10465;SDS011;5280;42.600;23.556;2023-11-21T06:29:41;4.60;;;3.30;;
10465;SDS011;5280;42.600;23.556;2023-11-21T06:32:08;4.13;;;3.30;;
10465;SDS011;5280;42.600;23.556;2023-11-21T06:34:35;4.87;;;3.13;;
10465;SDS011;5280;42.600;23.556;2023-11-21T06:37:02;4.57;;;3.13;;
10465;SDS011;5280;42.600;23.556;2023-11-21T06:39:29;3.83;;;3.17;;
10465;SDS011;5280;42.600;23.556;2023-11-21T06:41:57;3.90;;;2.70;;
10465;SDS011;5280;42.600;23.556;2023-11-21T06:44:25;3.37;;;2.53;;
10465;SDS011;5280;42.600;23.556;2023-11-21T06:46:52;6.57;;;3.20;;
10465;SDS011;5280;42.600;23.556;2023-11-21T06:49:19;3.77;;;2.70;;
10465;SDS011;5280;42.600;23.556;2023-11-21T06:51:46;3.70;;;3.40;;
10465;SDS011;5280;42.600;23.556;2023-11-21T06:54:12;5.20;;;3.13;;
10465;SDS011;5280;42.600;23.556;2023-11-21T06:56:42;3.67;;;2.90;;
10465;SDS011;5280;42.600;23.556;2023-11-21T06:59:10;4.80;;;3.33;;
10465;SDS011;5280;42.600;23.556;2023-11-21T07:01:37;5.93;;;3.47;;
10465;SDS011;5280;42.600;23.556;2023-11-21T07:04:06;3.90;;;3.27;;
10465;SDS011;5280;42.600;23.556;2023-11-21T07:07:08;4.13;;;3.40;;
10465;SDS011;5280;42.600;23.556;2023-11-21T07:09:35;4.97;;;3.53;;
10465;SDS011;5280;42.600;23.556;2023-11-21T07:12:02;6.40;;;3.83;;
10465;SDS011;5280;42.600;23.556;2023-11-21T07:14:32;3.53;;;3.07;;
10465;SDS011;5280;42.600;23.556;2023-11-21T07:16:59;4.80;;;3.53;;
10465;SDS011;5280;42.600;23.556;2023-11-21T07:19:26;5.07;;;4.13;;
10465;SDS011;5280;42.600;23.556;2023-11-21T07:21:54;9.50;;;4.27;;
10465;SDS011;5280;42.600;23.556;2023-11-21T07:24:21;6.73;;;4.50;;
10465;SDS011;5280;42.600;23.556;2023-11-21T07:26:48;5.43;;;4.50;;
10465;SDS011;5280;42.600;23.556;2023-11-21T07:29:15;6.93;;;4.50;;
10465;SDS011;5280;42.600;23.556;2023-11-21T07:31:43;5.30;;;4.20;;
10465;SDS011;5280;42.600;23.556;2023-11-21T07:34:10;5.90;;;5.30;;
10465;SDS011;5280;42.600;23.556;2023-11-21T07:36:37;5.83;;;4.13;;
10465;SDS011;5280;42.600;23.556;2023-11-21T07:39:04;7.97;;;4.90;;
10465;SDS011;5280;42.600;23.556;2023-11-21T07:41:34;5.87;;;4.93;;
10465;SDS011;5280;42.600;23.556;2023-11-21T07:44:01;7.63;;;5.20;;
10465;SDS011;5280;42.600;23.556;2023-11-21T07:46:28;9.97;;;7.70;;
10465;SDS011;5280;42.600;23.556;2023-11-21T07:48:56;10.20;;;8.10;;
10465;SDS011;5280;42.600;23.556;2023-11-21T07:51:23;11.97;;;9.47;;
10465;SDS011;5280;42.600;23.556;2023-11-21T07:53:50;14.40;;;11.67;;
10465;SDS011;5280;42.600;23.556;2023-11-21T07:56:17;18.17;;;13.10;;
10465;SDS011;5280;42.600;23.556;2023-11-21T07:58:44;15.03;;;12.63;;
10465;SDS011;5280;42.600;23.556;2023-11-21T08:01:10;16.27;;;12.33;;
10465;SDS011;5280;42.600;23.556;2023-11-21T08:03:37;17.07;;;12.73;;
10465;SDS011;5280;42.600;23.556;2023-11-21T08:06:06;15.77;;;12.27;;
10465;SDS011;5280;42.600;23.556;2023-11-21T08:08:34;14.33;;;12.00;;
10465;SDS011;5280;42.600;23.556;2023-11-21T08:11:01;18.67;;;13.10;;
10465;SDS011;5280;42.600;23.556;2023-11-21T08:13:33;13.23;;;10.80;;
10465;SDS011;5280;42.600;23.556;2023-11-21T08:16:00;15.30;;;12.80;;
10465;SDS011;5280;42.600;23.556;2023-11-21T08:18:30;16.60;;;10.33;;
10465;SDS011;5280;42.600;23.556;2023-11-21T08:21:01;11.83;;;9.40;;
10465;SDS011;5280;42.600;23.556;2023-11-21T08:23:39;14.10;;;11.17;;
10465;SDS011;5280;42.600;23.556;2023-11-21T08:26:07;14.73;;;9.23;;
10465;SDS011;5280;42.600;23.556;2023-11-21T08:28:34;10.13;;;8.53;;
10465;SDS011;5280;42.600;23.556;2023-11-21T08:31:04;10.27;;;8.67;;
10465;SDS011;5280;42.600;23.556;2023-11-21T08:33:31;10.93;;;8.50;;
10465;SDS011;5280;42.600;23.556;2023-11-21T08:35:59;10.67;;;8.13;;
10465;SDS011;5280;42.600;23.556;2023-11-21T08:38:27;8.87;;;7.93;;
10465;SDS011;5280;42.600;23.556;2023-11-21T08:41:02;8.50;;;7.60;;
10465;SDS011;5280;42.600;23.556;2023-11-21T08:43:50;14.10;;;10.87;;
10465;SDS011;5280;42.600;23.556;2023-11-21T08:46:19;13.97;;;10.90;;
10465;SDS011;5280;42.600;23.556;2023-11-21T08:48:45;9.33;;;7.93;;
10465;SDS011;5280;42.600;23.556;2023-11-21T08:51:12;12.90;;;9.03;;
10465;SDS011;5280;42.600;23.556;2023-11-21T08:53:44;9.63;;;8.60;;
10465;SDS011;5280;42.600;23.556;2023-11-21T08:56:15;10.27;;;8.40;;
10465;SDS011;5280;42.600;23.556;2023-11-21T08:58:43;10.97;;;9.07;;
10465;SDS011;5280;42.600;23.556;2023-11-21T09:01:12;10.27;;;7.90;;
10465;SDS011;5280;42.600;23.556;2023-11-21T09:03:39;9.83;;;7.57;;
10465;SDS011;5280;42.600;23.556;2023-11-21T09:06:06;10.27;;;7.70;;
10465;SDS011;5280;42.600;23.556;2023-11-21T09:08:37;11.60;;;8.03;;
10465;SDS011;5280;42.600;23.556;2023-11-21T09:11:04;10.30;;;7.70;;
10465;SDS011;5280;42.600;23.556;2023-11-21T09:13:41;10.00;;;7.53;;
10465;SDS011;5280;42.600;23.556;2023-11-21T09:16:08;10.30;;;8.63;;
10465;SDS011;5280;42.600;23.556;2023-11-21T09:18:36;8.67;;;7.73;;
10465;SDS011;5280;42.600;23.556;2023-11-21T09:21:03;8.93;;;7.43;;
10465;SDS011;5280;42.600;23.556;2023-11-21T09:23:38;10.77;;;7.70;;
10465;SDS011;5280;42.600;23.556;2023-11-21T09:26:05;11.27;;;7.80;;
10465;SDS011;5280;42.600;23.556;2023-11-21T09:28:32;11.60;;;7.30;;
10465;SDS011;5280;42.600;23.556;2023-11-21T09:31:01;7.77;;;6.97;;
10465;SDS011;5280;42.600;23.556;2023-11-21T09:33:30;12.27;;;8.53;;
10465;SDS011;5280;42.600;23.556;2023-11-21T09:35:59;10.63;;;7.77;;
10465;SDS011;5280;42.600;23.556;2023-11-21T09:38:26;45.50;;;23.63;;
10465;SDS011;5280;42.600;23.556;2023-11-21T09:40:54;14.97;;;12.70;;
10465;SDS011;5280;42.600;23.556;2023-11-21T09:43:23;10.60;;;7.87;;
10465;SDS011;5280;42.600;23.556;2023-11-21T09:45:54;11.87;;;7.57;;
10465;SDS011;5280;42.600;23.556;2023-11-21T09:51:28;11.73;;;7.90;;
10465;SDS011;5280;42.600;23.556;2023-11-21T09:53:58;8.53;;;6.70;;
10465;SDS011;5280;42.600;23.556;2023-11-21T09:56:32;10.87;;;7.33;;
10465;SDS011;5280;42.600;23.556;2023-11-21T09:59:00;10.17;;;7.03;;
10465;SDS011;5280;42.600;23.556;2023-11-21T10:01:32;10.37;;;8.10;;
10465;SDS011;5280;42.600;23.556;2023-11-21T10:04:07;9.80;;;8.60;;
10465;SDS011;5280;42.600;23.556;2023-11-21T10:06:37;12.23;;;8.77;;
10465;SDS011;5280;42.600;23.556;2023-11-21T10:09:06;15.33;;;9.77;;
10465;SDS011;5280;42.600;23.556;2023-11-21T10:11:37;11.70;;;8.70;;
10465;SDS011;5280;42.600;23.556;2023-11-21T10:14:07;12.30;;;9.40;;
10465;SDS011;5280;42.600;23.556;2023-11-21T10:16:56;15.63;;;9.37;;
10465;SDS011;5280;42.600;23.556;2023-11-21T10:19:25;11.80;;;8.37;;
10465;SDS011;5280;42.600;23.556;2023-11-21T10:21:54;11.93;;;8.70;;
10465;SDS011;5280;42.600;23.556;2023-11-21T10:24:22;8.13;;;7.10;;
10465;SDS011;5280;42.600;23.556;2023-11-21T10:26:52;9.57;;;7.30;;
10465;SDS011;5280;42.600;23.556;2023-11-21T10:29:19;8.93;;;7.03;;
10465;SDS011;5280;42.600;23.556;2023-11-21T10:31:48;9.33;;;6.10;;
10465;SDS011;5280;42.600;23.556;2023-11-21T10:34:17;10.20;;;6.80;;
10465;SDS011;5280;42.600;23.556;2023-11-21T10:36:47;10.40;;;6.57;;
10465;SDS011;5280;42.600;23.556;2023-11-21T10:39:14;9.27;;;6.97;;
10465;SDS011;5280;42.600;23.556;2023-11-21T10:41:44;9.67;;;7.03;;
10465;SDS011;5280;42.600;23.556;2023-11-21T10:44:13;10.30;;;6.70;;
10465;SDS011;5280;42.600;23.556;2023-11-21T10:46:45;8.63;;;7.03;;
10465;SDS011;5280;42.600;23.556;2023-11-21T10:49:16;10.93;;;6.87;;
10465;SDS011;5280;42.600;23.556;2023-11-21T10:51:47;7.50;;;6.80;;
10465;SDS011;5280;42.600;23.556;2023-11-21T10:54:17;8.00;;;6.20;;
10465;SDS011;5280;42.600;23.556;2023-11-21T10:56:45;10.23;;;6.83;;
10465;SDS011;5280;42.600;23.556;2023-11-21T10:59:13;8.07;;;7.00;;
10465;SDS011;5280;42.600;23.556;2023-11-21T11:01:41;10.97;;;7.03;;
10465;SDS011;5280;42.600;23.556;2023-11-21T11:04:11;9.20;;;6.57;;
10465;SDS011;5280;42.600;23.556;2023-11-21T11:06:41;8.50;;;6.60;;
10465;SDS011;5280;42.600;23.556;2023-11-21T11:09:11;7.60;;;6.67;;
10465;SDS011;5280;42.600;23.556;2023-11-21T11:11:41;8.70;;;7.70;;
10465;SDS011;5280;42.600;23.556;2023-11-21T11:14:10;12.40;;;7.47;;
10465;SDS011;5280;42.600;23.556;2023-11-21T11:16:38;10.60;;;7.33;;
10465;SDS011;5280;42.600;23.556;2023-11-21T11:19:08;11.70;;;7.30;;
10465;SDS011;5280;42.600;23.556;2023-11-21T11:21:38;7.73;;;6.80;;
10465;SDS011;5280;42.600;23.556;2023-11-21T11:24:20;8.67;;;7.23;;
10465;SDS011;5280;42.600;23.556;2023-11-21T11:27:09;8.77;;;7.40;;
10465;SDS011;5280;42.600;23.556;2023-11-21T11:29:46;8.13;;;6.90;;
10465;SDS011;5280;42.600;23.556;2023-11-21T11:32:25;8.57;;;7.27;;
10465;SDS011;5280;42.600;23.556;2023-11-21T11:35:04;9.17;;;7.63;;
10465;SDS011;5280;42.600;23.556;2023-11-21T11:37:36;9.53;;;7.47;;
10465;SDS011;5280;42.600;23.556;2023-11-21T11:40:07;10.63;;;7.30;;
10465;SDS011;5280;42.600;23.556;2023-11-21T11:42:37;11.07;;;7.70;;
10465;SDS011;5280;42.600;23.556;2023-11-21T11:45:14;9.60;;;7.23;;
10465;SDS011;5280;42.600;23.556;2023-11-21T11:47:44;9.43;;;7.40;;
10465;SDS011;5280;42.600;23.556;2023-11-21T11:50:14;8.50;;;7.03;;
10465;SDS011;5280;42.600;23.556;2023-11-21T11:52:42;11.17;;;7.77;;
10465;SDS011;5280;42.600;23.556;2023-11-21T11:55:12;11.97;;;8.83;;
10465;SDS011;5280;42.600;23.556;2023-11-21T11:57:44;12.80;;;9.80;;
10465;SDS011;5280;42.600;23.556;2023-11-21T12:00:15;12.00;;;8.53;;
10465;SDS011;5280;42.600;23.556;2023-11-21T12:02:45;8.80;;;7.53;;
10465;SDS011;5280;42.600;23.556;2023-11-21T12:05:16;7.67;;;6.87;;
10465;SDS011;5280;42.600;23.556;2023-11-21T12:07:48;7.73;;;6.93;;
10465;SDS011;5280;42.600;23.556;2023-11-21T12:10:20;10.90;;;7.77;;
10465;SDS011;5280;42.600;23.556;2023-11-21T12:12:50;8.10;;;7.03;;
10465;SDS011;5280;42.600;23.556;2023-11-21T12:15:18;8.07;;;6.80;;
10465;SDS011;5280;42.600;23.556;2023-11-21T12:17:47;11.57;;;7.67;;
10465;SDS011;5280;42.600;23.556;2023-11-21T12:20:16;8.80;;;7.17;;
10465;SDS011;5280;42.600;23.556;2023-11-21T12:22:46;9.20;;;7.43;;
10465;SDS011;5280;42.600;23.556;2023-11-21T12:25:14;9.37;;;7.37;;
10465;SDS011;5280;42.600;23.556;2023-11-21T12:27:45;9.00;;;7.40;;
10465;SDS011;5280;42.600;23.556;2023-11-21T12:30:15;11.73;;;7.60;;
10465;SDS011;5280;42.600;23.556;2023-11-21T12:32:43;13.50;;;8.27;;
10465;SDS011;5280;42.600;23.556;2023-11-21T12:35:12;13.90;;;8.83;;
10465;SDS011;5280;42.600;23.556;2023-11-21T12:37:40;14.27;;;7.87;;
10465;SDS011;5280;42.600;23.556;2023-11-21T12:40:09;8.10;;;6.10;;
10465;SDS011;5280;42.600;23.556;2023-11-21T12:42:39;8.70;;;5.90;;
10465;SDS011;5280;42.600;23.556;2023-11-21T12:45:10;8.07;;;6.90;;
10465;SDS011;5280;42.600;23.556;2023-11-21T12:47:45;8.87;;;5.73;;
10465;SDS011;5280;42.600;23.556;2023-11-21T12:50:14;7.47;;;5.57;;
10465;SDS011;5280;42.600;23.556;2023-11-21T12:52:41;6.87;;;6.17;;
10465;SDS011;5280;42.600;23.556;2023-11-21T12:55:15;10.03;;;6.87;;
10465;SDS011;5280;42.600;23.556;2023-11-21T12:57:44;8.63;;;6.40;;
10465;SDS011;5280;42.600;23.556;2023-11-21T13:00:13;7.47;;;6.50;;
10465;SDS011;5280;42.600;23.556;2023-11-21T13:02:52;7.50;;;6.43;;
10465;SDS011;5280;42.600;23.556;2023-11-21T13:05:28;11.43;;;7.27;;
10465;SDS011;5280;42.600;23.556;2023-11-21T13:08:00;10.03;;;7.50;;
10465;SDS011;5280;42.600;23.556;2023-11-21T13:10:29;9.47;;;7.07;;
10465;SDS011;5280;42.600;23.556;2023-11-21T13:12:58;9.30;;;7.93;;
10465;SDS011;5280;42.600;23.556;2023-11-21T13:15:31;9.57;;;7.83;;
10465;SDS011;5280;42.600;23.556;2023-11-21T13:18:00;10.83;;;7.73;;
10465;SDS011;5280;42.600;23.556;2023-11-21T13:20:30;12.13;;;7.97;;
10465;SDS011;5280;42.600;23.556;2023-11-21T13:22:59;10.83;;;7.07;;
10465;SDS011;5280;42.600;23.556;2023-11-21T13:25:27;9.17;;;7.40;;
10465;SDS011;5280;42.600;23.556;2023-11-21T13:27:57;9.10;;;7.47;;
10465;SDS011;5280;42.600;23.556;2023-11-21T13:30:31;14.70;;;7.57;;
10465;SDS011;5280;42.600;23.556;2023-11-21T13:33:00;9.10;;;7.53;;
10465;SDS011;5280;42.600;23.556;2023-11-21T13:35:46;10.50;;;7.90;;
10465;SDS011;5280;42.600;23.556;2023-11-21T13:38:17;12.20;;;8.60;;
10465;SDS011;5280;42.600;23.556;2023-11-21T13:40:48;10.03;;;8.63;;
10465;SDS011;5280;42.600;23.556;2023-11-21T13:43:19;11.33;;;8.83;;
10465;SDS011;5280;42.600;23.556;2023-11-21T13:45:53;12.03;;;9.67;;
10465;SDS011;5280;42.600;23.556;2023-11-21T13:48:25;11.67;;;8.70;;
10465;SDS011;5280;42.600;23.556;2023-11-21T13:50:57;12.40;;;8.83;;
10465;SDS011;5280;42.600;23.556;2023-11-21T13:53:27;12.77;;;7.90;;
10465;SDS011;5280;42.600;23.556;2023-11-21T13:55:54;10.67;;;7.87;;
10465;SDS011;5280;42.600;23.556;2023-11-21T13:58:23;11.43;;;8.40;;
10465;SDS011;5280;42.600;23.556;2023-11-21T14:01:05;13.40;;;8.57;;
10465;SDS011;5280;42.600;23.556;2023-11-21T14:03:49;10.20;;;7.93;;
10465;SDS011;5280;42.600;23.556;2023-11-21T14:06:32;13.50;;;9.30;;
10465;SDS011;5280;42.600;23.556;2023-11-21T14:09:06;14.17;;;8.50;;
10465;SDS011;5280;42.600;23.556;2023-11-21T14:11:33;13.50;;;9.17;;
10465;SDS011;5280;42.600;23.556;2023-11-21T14:14:04;12.73;;;8.30;;
10465;SDS011;5280;42.600;23.556;2023-11-21T14:16:45;11.90;;;7.93;;
10465;SDS011;5280;42.600;23.556;2023-11-21T14:19:12;13.87;;;7.30;;
10465;SDS011;5280;42.600;23.556;2023-11-21T14:21:42;9.20;;;6.83;;
10465;SDS011;5280;42.600;23.556;2023-11-21T14:24:10;13.20;;;7.07;;
10465;SDS011;5280;42.600;23.556;2023-11-21T14:26:38;10.60;;;7.23;;
10465;SDS011;5280;42.600;23.556;2023-11-21T14:29:10;11.80;;;7.40;;
10465;SDS011;5280;42.600;23.556;2023-11-21T14:31:39;10.00;;;6.73;;
10465;SDS011;5280;42.600;23.556;2023-11-21T14:34:08;12.10;;;6.50;;
10465;SDS011;5280;42.600;23.556;2023-11-21T14:36:37;10.60;;;6.43;;
10465;SDS011;5280;42.600;23.556;2023-11-21T14:39:04;9.10;;;5.80;;
10465;SDS011;5280;42.600;23.556;2023-11-21T14:41:36;10.40;;;5.93;;
10465;SDS011;5280;42.600;23.556;2023-11-21T14:44:04;8.23;;;7.03;;
10465;SDS011;5280;42.600;23.556;2023-11-21T14:46:37;10.60;;;7.63;;
10465;SDS011;5280;42.600;23.556;2023-11-21T14:49:04;14.47;;;7.80;;
10465;SDS011;5280;42.600;23.556;2023-11-21T14:51:46;13.03;;;7.70;;
10465;SDS011;5280;42.600;23.556;2023-11-21T14:54:35;12.53;;;8.07;;
10465;SDS011;5280;42.600;23.556;2023-11-21T14:57:05;8.53;;;7.03;;